STS Fryderyk Chopin — SPS2298 — position and weather

sailwx.info

Track history (hours):
 
Tides and Currents Weather Stations Pressure Air Temp Water Temp Dewpoint Dewpoint Depression Visibility Wind Speed Wind Dir Waves Ship Positions

STS Fryderyk Chopin (Poland)

Ship's website: http://www.fryderykchopin.pl/

Last reported at 2017-Sep-18 22:30 UTC. Time now 2017-Sep-22 15:19 UTC.
Position N 56°03' W 001°31'.

Length 44 m; draft 4.2 m.

Type: Sailing vessel. MMSI: 261000290.

Date/timePositionNaut miles runAvg speedWind from/ knotsBaromVisibWave heightAir tempDewpointWater temp
2017-Sep-18 22:30N 56°03' W 001°31'5 4.3
2017-Sep-18 21:19N 56°04' W 001°40'2 4.9
2017-Sep-18 21:00N 56°05' W 001°42'3 5.3
2017-Sep-18 20:30N 56°06' W 001°46'3 5.2
2017-Sep-18 20:00N 56°08' W 001°50'2 4.7
2017-Sep-18 19:30N 56°09' W 001°54'2 4.6
2017-Sep-18 19:00N 56°10' W 001°57'4 8.7
2017-Sep-18 18:30N 56°08' W 002°05'4 8.8
2017-Sep-18 18:00N 56°07' W 002°12'5 9.2
2017-Sep-18 17:30N 56°05' W 002°20'5 9.9
2017-Sep-18 17:01N 56°06' W 002°29'5 9.9
2017-Sep-18 16:30N 56°06' W 002°38'510.7
2017-Sep-18 16:00N 56°06' W 002°47'510.9
2017-Sep-18 15:30N 56°04' W 002°56'510.7
2017-Sep-18 15:00N 56°02' W 003°05'4 8.4
2017-Sep-18 14:30N 55°59' W 003°11'0 0.7
2017-Sep-18 14:00N 55°59' W 003°11'0 0.4
2017-Sep-18 13:29N 55°59' W 003°11'0 0.0
2017-Sep-18 12:59N 55°59' W 003°11'0 0.0
2017-Sep-18 12:29N 55°59' W 003°11'0 0.0
2017-Sep-18 11:59N 55°59' W 003°11'0 0.0
2017-Sep-18 11:29N 55°59' W 003°11'0 0.0
2017-Sep-18 10:59N 55°59' W 003°11'0 0.0
2017-Sep-18 10:29N 55°59' W 003°11'0 0.0
2017-Sep-18 09:59N 55°59' W 003°11'0 0.0
2017-Sep-18 09:29N 55°59' W 003°11'0 0.0
2017-Sep-18 08:59N 55°59' W 003°11'0 0.0
2017-Sep-18 08:29N 55°59' W 003°11'0 0.0
2017-Sep-18 07:59N 55°59' W 003°11'0 0.0
2017-Sep-18 07:29N 55°59' W 003°11'0 0.0
2017-Sep-18 06:59N 55°59' W 003°11'0 0.0
2017-Sep-18 06:29N 55°59' W 003°11'0 0.0
2017-Sep-18 05:59N 55°59' W 003°11'0 0.0
2017-Sep-18 05:29N 55°59' W 003°11'0 0.0
2017-Sep-18 04:59N 55°59' W 003°11'0 0.0
2017-Sep-18 04:29N 55°59' W 003°11'0 0.0
2017-Sep-18 03:59N 55°59' W 003°11'0 0.0
2017-Sep-18 03:29N 55°59' W 003°11'0 0.0
2017-Sep-18 02:59N 55°59' W 003°11'0 0.0
2017-Sep-18 02:29N 55°59' W 003°11'0 0.0
2017-Sep-18 01:59N 55°59' W 003°11'0 0.0
2017-Sep-18 01:29N 55°59' W 003°11'0 0.0
2017-Sep-18 00:59N 55°59' W 003°11'0 0.0
2017-Sep-18 00:29N 55°59' W 003°11'0 0.0
2017-Sep-17 23:59N 55°59' W 003°11'0 0.0
2017-Sep-17 23:29N 55°59' W 003°11'0 0.0
2017-Sep-17 22:59N 55°59' W 003°11'0 0.0
2017-Sep-17 22:29N 55°59' W 003°11'0 0.0
2017-Sep-17 21:59N 55°59' W 003°11'0 0.0
2017-Sep-17 21:29N 55°59' W 003°11'0 0.0
2017-Sep-17 20:59N 55°59' W 003°11'0 0.0
2017-Sep-17 20:29N 55°59' W 003°11'0 0.0
2017-Sep-17 19:59N 55°59' W 003°11'0 0.0
2017-Sep-17 19:29N 55°59' W 003°11'0 0.0
2017-Sep-17 18:59N 55°59' W 003°11'0 0.0
2017-Sep-17 18:29N 55°59' W 003°11'0 0.0
2017-Sep-17 17:59N 55°59' W 003°11'0 0.0
2017-Sep-17 17:29N 55°59' W 003°11'0 0.0
2017-Sep-17 16:59N 55°59' W 003°11'0 0.0
2017-Sep-17 16:29N 55°59' W 003°11'0 0.0
2017-Sep-17 15:59N 55°59' W 003°11'0 0.0
2017-Sep-17 15:29N 55°59' W 003°11'0 0.0
2017-Sep-17 14:59N 55°59' W 003°11'0 0.0
2017-Sep-17 14:29N 55°59' W 003°11'0 0.0
2017-Sep-17 13:59N 55°59' W 003°11'0 0.0
2017-Sep-17 13:29N 55°59' W 003°11'0 0.0
2017-Sep-17 12:59N 55°59' W 003°11'0 0.0
2017-Sep-17 12:29N 55°59' W 003°11'0 0.0
2017-Sep-17 11:59N 55°59' W 003°11'0 0.0
2017-Sep-17 11:29N 55°59' W 003°11'0 0.0
2017-Sep-17 10:59N 55°59' W 003°11'0 0.0
2017-Sep-17 10:29N 55°59' W 003°11'0 0.0
2017-Sep-17 09:59N 55°59' W 003°11'0 0.0
2017-Sep-17 09:29N 55°59' W 003°11'0 0.0
2017-Sep-17 08:59N 55°59' W 003°11'0 0.0
2017-Sep-17 08:29N 55°59' W 003°11'0 0.0
2017-Sep-17 07:59N 55°59' W 003°11'0 0.0
2017-Sep-17 07:29N 55°59' W 003°11'0 0.0
2017-Sep-17 06:59N 55°59' W 003°11'0 0.0
2017-Sep-17 06:29N 55°59' W 003°11'0 0.0
2017-Sep-17 05:59N 55°59' W 003°11'0 0.0
2017-Sep-17 05:29N 55°59' W 003°11'0 0.0
2017-Sep-17 04:59N 55°59' W 003°11'0 0.0
2017-Sep-17 04:29N 55°59' W 003°11'0 0.0
2017-Sep-17 03:59N 55°59' W 003°11'0 0.0
2017-Sep-17 03:29N 55°59' W 003°11'0 0.0
2017-Sep-17 02:59N 55°59' W 003°11'0 0.0
2017-Sep-17 02:29N 55°59' W 003°11'0 0.0
2017-Sep-17 01:59N 55°59' W 003°11'0 0.0
2017-Sep-17 01:29N 55°59' W 003°11'0 0.0
2017-Sep-17 00:59N 55°59' W 003°11'0 0.0
2017-Sep-17 00:29N 55°59' W 003°11'0 0.0
2017-Sep-16 23:59N 55°59' W 003°11'0 0.0
2017-Sep-16 23:29N 55°59' W 003°11'0 0.0
2017-Sep-16 22:59N 55°59' W 003°11'0 0.0
2017-Sep-16 22:29N 55°59' W 003°11'0 0.0
2017-Sep-16 21:59N 55°59' W 003°11'0 0.0
2017-Sep-16 21:29N 55°59' W 003°11'0 0.0
2017-Sep-16 20:59N 55°59' W 003°11'0 0.0
2017-Sep-16 20:29N 55°59' W 003°11'0 0.0
2017-Sep-16 19:59N 55°59' W 003°11'0 0.0
2017-Sep-16 19:29N 55°59' W 003°11'0 0.0
2017-Sep-16 18:59N 55°59' W 003°11'0 0.0
2017-Sep-16 18:29N 55°59' W 003°11'0 0.0
2017-Sep-16 17:59N 55°59' W 003°11'0 0.0
2017-Sep-16 17:29N 55°59' W 003°11'0 0.0
2017-Sep-16 16:59N 55°59' W 003°11'0 0.0
2017-Sep-16 16:29N 55°59' W 003°11'0 0.0
2017-Sep-16 15:59N 55°59' W 003°11'0 0.0
2017-Sep-16 15:29N 55°59' W 003°11'0 0.0
2017-Sep-16 14:59N 55°59' W 003°11'0 0.0
2017-Sep-16 14:29N 55°59' W 003°11'0 0.0
2017-Sep-16 13:59N 55°59' W 003°11'0 0.0
2017-Sep-16 13:29N 55°59' W 003°11'0 0.0
2017-Sep-16 12:59N 55°59' W 003°11'0 0.0
2017-Sep-16 12:29N 55°59' W 003°11'0 0.0
2017-Sep-16 11:59N 55°59' W 003°11'0 0.0
2017-Sep-16 11:29N 55°59' W 003°11'0 0.0
2017-Sep-16 10:59N 55°59' W 003°11'0 0.0
2017-Sep-16 10:29N 55°59' W 003°11'0 0.0
2017-Sep-16 09:59N 55°59' W 003°11'0 0.0
2017-Sep-16 09:29N 55°59' W 003°11'0 0.0
2017-Sep-16 08:59N 55°59' W 003°11'0 0.0
2017-Sep-16 08:29N 55°59' W 003°11'0 0.0
2017-Sep-16 07:59N 55°59' W 003°11'0 0.0
2017-Sep-16 07:29N 55°59' W 003°11'0 0.0
2017-Sep-16 06:59N 55°59' W 003°11'0 0.0
2017-Sep-16 06:29N 55°59' W 003°11'0 0.0
2017-Sep-16 05:59N 55°59' W 003°11'0 0.0
2017-Sep-16 05:29N 55°59' W 003°11'0 0.0
2017-Sep-16 04:59N 55°59' W 003°11'0 0.0
2017-Sep-16 04:29N 55°59' W 003°11'0 0.0
2017-Sep-16 03:59N 55°59' W 003°11'0 0.0
2017-Sep-16 03:29N 55°59' W 003°11'0 0.0
2017-Sep-16 02:59N 55°59' W 003°11'0 0.0
2017-Sep-16 02:29N 55°59' W 003°11'0 0.0
2017-Sep-16 01:59N 55°59' W 003°11'0 0.0
2017-Sep-16 01:29N 55°59' W 003°11'0 0.0
2017-Sep-16 00:59N 55°59' W 003°11'0 0.0
2017-Sep-16 00:29N 55°59' W 003°11'0 0.0
2017-Sep-15 23:59N 55°59' W 003°11'0 0.0
2017-Sep-15 23:29N 55°59' W 003°11'0 0.0
2017-Sep-15 22:59N 55°59' W 003°11'0 0.0
2017-Sep-15 22:29N 55°59' W 003°11'0 0.0
2017-Sep-15 21:59N 55°59' W 003°11'0 0.0
2017-Sep-15 21:29N 55°59' W 003°11'0 0.0
2017-Sep-15 20:59N 55°59' W 003°11'0 0.0
2017-Sep-15 20:29N 55°59' W 003°11'0 0.0
2017-Sep-15 19:59N 55°59' W 003°11'0 0.0
2017-Sep-15 19:29N 55°59' W 003°11'0 0.0
2017-Sep-15 18:59N 55°59' W 003°11'0 0.0
2017-Sep-15 18:29N 55°59' W 003°11'0 0.0
2017-Sep-15 17:59N 55°59' W 003°11'0 0.1
2017-Sep-15 17:31N 55°59' W 003°11'0 0.7
2017-Sep-15 17:00N 55°59' W 003°11'1 2.0
2017-Sep-15 16:30N 56°00' W 003°11'3 5.3
2017-Sep-15 16:00N 56°02' W 003°06'0 0.7
2017-Sep-15 15:30N 56°02' W 003°07'0 0.0
2017-Sep-15 15:00N 56°02' W 003°07'0 0.0
2017-Sep-15 14:30N 56°02' W 003°07'0 0.0
2017-Sep-15 14:00N 56°02' W 003°07'0 0.0
2017-Sep-15 13:30N 56°02' W 003°07'0 0.0
2017-Sep-15 13:00N 56°02' W 003°07'0 0.0
2017-Sep-15 12:30N 56°02' W 003°07'0 0.0
2017-Sep-15 12:00N 56°02' W 003°07'0 0.0
2017-Sep-15 11:30N 56°02' W 003°07'0 0.0
2017-Sep-15 11:00N 56°02' W 003°07'1 1.6
2017-Sep-15 10:30N 56°02' W 003°05'3 5.6
2017-Sep-15 10:00N 56°03' W 003°01'5 9.3
2017-Sep-15 09:30N 56°05' W 002°54'5 9.4
2017-Sep-15 09:01N 56°07' W 002°46'2 3.5
2017-Sep-15 08:30N 56°07' W 002°43'1 2.9
2017-Sep-15 08:00N 56°08' W 002°41'3 5.1
2017-Sep-15 07:30N 56°10' W 002°38'2 4.3
2017-Sep-15 07:00N 56°12' W 002°36'2 4.1
2017-Sep-15 06:30N 56°14' W 002°34'1 2.4
2017-Sep-15 06:00N 56°15' W 002°33'1 1.9
2017-Sep-15 05:30N 56°16' W 002°32'3 4.6
2017-Sep-15 04:52N 56°19' W 002°30'2 5.2
2017-Sep-15 04:30N 56°20' W 002°29'3 5.9
2017-Sep-15 04:00N 56°23' W 002°28'2 4.3
2017-Sep-15 03:30N 56°25' W 002°27'2 4.1
2017-Sep-15 03:00N 56°27' W 002°27'3 5.5
2017-Sep-15 02:30N 56°30' W 002°24'3 5.8
2017-Sep-15 02:00N 56°32' W 002°22'27 6.0
2017-Sep-14 21:34N 56°56' W 002°01'2 6.0
2017-Sep-14 21:16N 56°58' W 002°01'2 6.3
2017-Sep-14 21:00N 56°60' W 001°60'4 7.3
2017-Sep-14 20:30N 57°03' W 001°58'3 6.6
2017-Sep-14 20:00N 57°06' W 001°58'4 8.0
2017-Sep-14 19:30N 57°08' W 002°04'1 1.2
2017-Sep-14 19:01N 57°09' W 002°05'0 0.0
2017-Sep-14 18:30N 57°09' W 002°05'0 0.0
2017-Sep-14 17:58N 57°09' W 002°05'0 0.0
2017-Sep-14 17:25N 57°09' W 002°05'0 0.0
2017-Sep-14 16:58N 57°09' W 002°05'0 0.0
2017-Sep-14 16:28N 57°09' W 002°05'0 0.0
2017-Sep-14 16:01N 57°09' W 002°05'0 0.0
2017-Sep-14 15:31N 57°09' W 002°05'0 0.0
2017-Sep-14 14:58N 57°09' W 002°05'0 0.0
2017-Sep-14 14:28N 57°09' W 002°05'0 0.0
2017-Sep-14 14:01N 57°09' W 002°05'0 0.0
2017-Sep-14 13:31N 57°09' W 002°05'0 0.0
2017-Sep-14 13:01N 57°09' W 002°05'0 0.0
2017-Sep-14 12:31N 57°09' W 002°05'0 0.0
2017-Sep-14 11:58N 57°09' W 002°05'0 0.0
2017-Sep-14 11:31N 57°09' W 002°05'0 0.0
2017-Sep-14 11:01N 57°09' W 002°05'0 0.0
2017-Sep-14 10:28N 57°09' W 002°05'0 0.0
2017-Sep-14 09:58N 57°09' W 002°05'0 0.0
2017-Sep-14 09:31N 57°09' W 002°05'0 0.0
2017-Sep-14 08:58N 57°09' W 002°05'0 0.0
2017-Sep-14 08:31N 57°09' W 002°05'0 0.0
2017-Sep-14 08:01N 57°09' W 002°05'0 0.0
2017-Sep-14 07:28N 57°09' W 002°05'0 0.0
2017-Sep-14 06:58N 57°09' W 002°05'0 0.0
2017-Sep-14 06:28N 57°09' W 002°05'0 0.0
2017-Sep-14 06:01N 57°09' W 002°05'0 0.0
2017-Sep-14 05:28N 57°09' W 002°05'0 0.0
2017-Sep-14 04:58N 57°09' W 002°05'0 0.0
2017-Sep-14 04:28N 57°09' W 002°05'0 0.0
2017-Sep-14 03:58N 57°09' W 002°05'0 0.0
2017-Sep-14 03:25N 57°09' W 002°05'0 0.0
2017-Sep-14 03:01N 57°09' W 002°05'0 0.0
2017-Sep-14 02:28N 57°09' W 002°05'0 0.0
2017-Sep-14 02:01N 57°09' W 002°05'0 0.0
2017-Sep-14 01:31N 57°09' W 002°05'0 0.0
2017-Sep-14 00:57N 57°09' W 002°05'0 0.0
2017-Sep-14 00:28N 57°09' W 002°05'0 0.0
2017-Sep-14 00:01N 57°09' W 002°05'0 0.0
2017-Sep-13 23:28N 57°09' W 002°05'0 0.0
2017-Sep-13 23:01N 57°09' W 002°05'0 0.0
2017-Sep-13 22:28N 57°09' W 002°05'0 0.0
2017-Sep-13 22:01N 57°09' W 002°05'0 0.0
2017-Sep-13 21:28N 57°09' W 002°05'0 0.0
2017-Sep-13 20:58N 57°09' W 002°05'0 0.0
2017-Sep-13 20:31N 57°09' W 002°05'0 0.0
2017-Sep-13 19:58N 57°09' W 002°05'0 0.0
2017-Sep-13 19:31N 57°09' W 002°05'0 0.0
2017-Sep-13 19:01N 57°09' W 002°05'0 0.0
2017-Sep-13 18:31N 57°09' W 002°05'0 0.0
2017-Sep-13 17:58N 57°09' W 002°05'0 0.0
2017-Sep-13 17:31N 57°09' W 002°05'0 0.0
2017-Sep-13 17:01N 57°09' W 002°05'0 0.0
2017-Sep-13 16:31N 57°09' W 002°05'0 0.0
2017-Sep-13 15:58N 57°09' W 002°05'0 0.0
2017-Sep-13 15:31N 57°09' W 002°05'0 0.0
2017-Sep-13 15:01N 57°09' W 002°05'0 0.0
2017-Sep-13 14:31N 57°09' W 002°05'0 0.0
2017-Sep-13 14:01N 57°09' W 002°05'0 0.0
2017-Sep-13 13:31N 57°09' W 002°05'0 0.0
2017-Sep-13 13:01N 57°09' W 002°05'0 0.0
2017-Sep-13 12:31N 57°09' W 002°05'0 0.0
2017-Sep-13 11:58N 57°09' W 002°05'0 0.0
2017-Sep-13 11:31N 57°09' W 002°05'0 0.0
2017-Sep-13 10:58N 57°09' W 002°05'0 0.0
2017-Sep-13 10:31N 57°09' W 002°05'0 0.0
2017-Sep-13 10:01N 57°09' W 002°05'0 0.0
2017-Sep-13 09:28N 57°09' W 002°05'0 0.0
2017-Sep-13 09:01N 57°09' W 002°05'0 0.0
2017-Sep-13 08:31N 57°09' W 002°05'0 0.0
2017-Sep-13 07:58N 57°09' W 002°05'0 0.0
2017-Sep-13 07:28N 57°09' W 002°05'0 0.0
2017-Sep-13 07:01N 57°09' W 002°05'0 0.0
2017-Sep-13 06:31N 57°09' W 002°05'0 0.0
2017-Sep-13 05:58N 57°09' W 002°05'0 0.0
2017-Sep-13 05:28N 57°09' W 002°05'0 0.0
2017-Sep-13 04:58N 57°09' W 002°05'0 0.0
2017-Sep-13 04:28N 57°09' W 002°05'0 0.0
2017-Sep-13 03:58N 57°09' W 002°05'0 0.0
2017-Sep-13 03:28N 57°09' W 002°05'0 0.0
2017-Sep-13 03:01N 57°09' W 002°05'0 0.0
2017-Sep-13 02:31N 57°09' W 002°05'0 0.0
2017-Sep-13 02:01N 57°09' W 002°05'0 0.0
2017-Sep-13 01:28N 57°09' W 002°05'0 0.0
2017-Sep-13 00:58N 57°09' W 002°05'0 0.0
2017-Sep-13 00:28N 57°09' W 002°05'0 0.0
2017-Sep-13 00:01N 57°09' W 002°05'0 0.0
2017-Sep-12 23:31N 57°09' W 002°05'0 0.0
2017-Sep-12 23:01N 57°09' W 002°05'0 0.0
2017-Sep-12 22:28N 57°09' W 002°05'0 0.0
2017-Sep-12 21:58N 57°09' W 002°05'0 0.0
2017-Sep-12 21:28N 57°09' W 002°05'0 0.0
2017-Sep-12 21:01N 57°09' W 002°05'0 0.0
2017-Sep-12 20:28N 57°09' W 002°05'0 0.0
2017-Sep-12 19:58N 57°09' W 002°05'0 0.0
2017-Sep-12 19:31N 57°09' W 002°05'0 0.0
2017-Sep-12 19:01N 57°09' W 002°05'0 0.0
2017-Sep-12 18:31N 57°09' W 002°05'0 0.0
2017-Sep-12 18:01N 57°09' W 002°05'0 0.0
2017-Sep-12 17:30N 57°09' W 002°05'1 1.7
2017-Sep-12 17:00N 57°09' W 002°04'5 9.2
2017-Sep-12 16:30N 57°12' W 001°58'710.8
2017-Sep-12 15:49N 57°17' W 001°48'710.8
2017-Sep-12 15:13N 57°22' W 001°41'310.3
2017-Sep-12 14:54N 57°24' W 001°36'2 5.1
2017-Sep-12 14:30N 57°26' W 001°34'1 2.6
2017-Sep-12 13:57N 57°28' W 001°34'1 3.1
2017-Sep-12 13:30N 57°29' W 001°33'1 2.5
2017-Sep-12 12:57N 57°30' W 001°33'1 2.7
2017-Sep-12 12:30N 57°32' W 001°32'2 2.4
2017-Sep-12 11:45N 57°33' W 001°31'1 2.3
2017-Sep-12 11:21N 57°34' W 001°31'1 2.4
2017-Sep-12 11:00N 57°35' W 001°30'2 2.7
2017-Sep-12 10:05N 57°37' W 001°28'0 3.0
2017-Sep-12 10:00N 57°37' W 001°28'4 3.1
2017-Sep-12 08:40N 57°41' W 001°24'228 5.0
2017-Sep-10 11:08N 58°06' E 005°42'2 8.7
2017-Sep-10 10:56N 58°05' E 005°45'4 9.3
2017-Sep-10 10:30N 58°03' E 005°52'5 8.8
2017-Sep-10 09:59N 58°02' E 005°60'4 8.9
2017-Sep-10 09:30N 57°60' E 006°07'4 8.9
2017-Sep-10 09:00N 57°57' E 006°14'4 7.8
2017-Sep-10 08:30N 57°55' E 006°20'3 6.6
2017-Sep-10 08:00N 57°53' E 006°25'3 5.5
2017-Sep-10 07:30N 57°51' E 006°29'3 5.0
2017-Sep-10 06:59N 57°50' E 006°32'3 5.4
2017-Sep-10 06:30N 57°48' E 006°36'3 6.0
2017-Sep-10 06:00N 57°46' E 006°41'3 5.6
2017-Sep-10 05:28N 57°44' E 006°45'114 6.1
2017-Sep-09 10:48N 57°43' E 010°18'7 8.5
2017-Sep-09 09:58N 57°47' E 010°30'4 7.5
2017-Sep-09 09:29N 57°48' E 010°36'4 7.3
2017-Sep-09 09:00N 57°49' E 010°42'4 7.9
2017-Sep-09 08:30N 57°48' E 010°49'4 8.5
2017-Sep-09 08:00N 57°46' E 010°56'5 8.8
2017-Sep-09 07:29N 57°44' E 011°04'5 9.3
2017-Sep-09 07:00N 57°42' E 011°12'4 9.1
2017-Sep-09 06:30N 57°39' E 011°18'4 8.0
2017-Sep-09 06:00N 57°36' E 011°23'1 1.8
2017-Sep-09 05:30N 57°35' E 011°22'1 2.2
2017-Sep-09 05:00N 57°34' E 011°23'2 3.4
2017-Sep-09 04:30N 57°32' E 011°25'2 4.2
2017-Sep-09 04:00N 57°31' E 011°27'2 4.1
2017-Sep-09 03:30N 57°29' E 011°28'2 4.4
2017-Sep-09 03:00N 57°27' E 011°30'2 4.3
2017-Sep-09 02:30N 57°25' E 011°32'3 5.1
2017-Sep-09 02:00N 57°23' E 011°34'3 5.7
2017-Sep-09 01:29N 57°20' E 011°37'3 6.5
2017-Sep-09 00:59N 57°18' E 011°41'3 6.1
2017-Sep-09 00:30N 57°15' E 011°44'3 6.3
2017-Sep-09 00:00N 57°13' E 011°47'  
Track history (hours):
 
Tides and Currents Weather Stations Pressure Air Temp Water Temp Dewpoint Dewpoint Depression Visibility Wind Speed Wind Dir Waves Ship Positions

STS Fryderyk Chopin (Poland)

Ship's website: http://www.fryderykchopin.pl/

Last reported at 2017-Sep-18 22:30 UTC. Time now 2017-Sep-22 15:19 UTC.
Position N 56°03' W 001°31'.

Length 44 m; draft 4.2 m.

Type: Sailing vessel. MMSI: 261000290.

Date/timePositionNaut miles runAvg speedWind from/ knotsBaromVisibWave heightAir tempDewpointWater temp
2017-Sep-18 22:30N 56°03' W 001°31'5 4.3
2017-Sep-18 21:19N 56°04' W 001°40'2 4.9
2017-Sep-18 21:00N 56°05' W 001°42'3 5.3
2017-Sep-18 20:30N 56°06' W 001°46'3 5.2
2017-Sep-18 20:00N 56°08' W 001°50'2 4.7
2017-Sep-18 19:30N 56°09' W 001°54'2 4.6
2017-Sep-18 19:00N 56°10' W 001°57'4 8.7
2017-Sep-18 18:30N 56°08' W 002°05'4 8.8
2017-Sep-18 18:00N 56°07' W 002°12'5 9.2
2017-Sep-18 17:30N 56°05' W 002°20'5 9.9
2017-Sep-18 17:01N 56°06' W 002°29'5 9.9
2017-Sep-18 16:30N 56°06' W 002°38'510.7
2017-Sep-18 16:00N 56°06' W 002°47'510.9
2017-Sep-18 15:30N 56°04' W 002°56'510.7
2017-Sep-18 15:00N 56°02' W 003°05'4 8.4
2017-Sep-18 14:30N 55°59' W 003°11'0 0.7
2017-Sep-18 14:00N 55°59' W 003°11'0 0.4
2017-Sep-18 13:29N 55°59' W 003°11'0 0.0
2017-Sep-18 12:59N 55°59' W 003°11'0 0.0
2017-Sep-18 12:29N 55°59' W 003°11'0 0.0
2017-Sep-18 11:59N 55°59' W 003°11'0 0.0
2017-Sep-18 11:29N 55°59' W 003°11'0 0.0
2017-Sep-18 10:59N 55°59' W 003°11'0 0.0
2017-Sep-18 10:29N 55°59' W 003°11'0 0.0
2017-Sep-18 09:59N 55°59' W 003°11'0 0.0
2017-Sep-18 09:29N 55°59' W 003°11'0 0.0
2017-Sep-18 08:59N 55°59' W 003°11'0 0.0
2017-Sep-18 08:29N 55°59' W 003°11'0 0.0
2017-Sep-18 07:59N 55°59' W 003°11'0 0.0
2017-Sep-18 07:29N 55°59' W 003°11'0 0.0
2017-Sep-18 06:59N 55°59' W 003°11'0 0.0
2017-Sep-18 06:29N 55°59' W 003°11'0 0.0
2017-Sep-18 05:59N 55°59' W 003°11'0 0.0
2017-Sep-18 05:29N 55°59' W 003°11'0 0.0
2017-Sep-18 04:59N 55°59' W 003°11'0 0.0
2017-Sep-18 04:29N 55°59' W 003°11'0 0.0
2017-Sep-18 03:59N 55°59' W 003°11'0 0.0
2017-Sep-18 03:29N 55°59' W 003°11'0 0.0
2017-Sep-18 02:59N 55°59' W 003°11'0 0.0
2017-Sep-18 02:29N 55°59' W 003°11'0 0.0
2017-Sep-18 01:59N 55°59' W 003°11'0 0.0
2017-Sep-18 01:29N 55°59' W 003°11'0 0.0
2017-Sep-18 00:59N 55°59' W 003°11'0 0.0
2017-Sep-18 00:29N 55°59' W 003°11'0 0.0
2017-Sep-17 23:59N 55°59' W 003°11'0 0.0
2017-Sep-17 23:29N 55°59' W 003°11'0 0.0
2017-Sep-17 22:59N 55°59' W 003°11'0 0.0
2017-Sep-17 22:29N 55°59' W 003°11'0 0.0
2017-Sep-17 21:59N 55°59' W 003°11'0 0.0
2017-Sep-17 21:29N 55°59' W 003°11'0 0.0
2017-Sep-17 20:59N 55°59' W 003°11'0 0.0
2017-Sep-17 20:29N 55°59' W 003°11'0 0.0
2017-Sep-17 19:59N 55°59' W 003°11'0 0.0
2017-Sep-17 19:29N 55°59' W 003°11'0 0.0
2017-Sep-17 18:59N 55°59' W 003°11'0 0.0
2017-Sep-17 18:29N 55°59' W 003°11'0 0.0
2017-Sep-17 17:59N 55°59' W 003°11'0 0.0
2017-Sep-17 17:29N 55°59' W 003°11'0 0.0
2017-Sep-17 16:59N 55°59' W 003°11'0 0.0
2017-Sep-17 16:29N 55°59' W 003°11'0 0.0
2017-Sep-17 15:59N 55°59' W 003°11'0 0.0
2017-Sep-17 15:29N 55°59' W 003°11'0 0.0
2017-Sep-17 14:59N 55°59' W 003°11'0 0.0
2017-Sep-17 14:29N 55°59' W 003°11'0 0.0
2017-Sep-17 13:59N 55°59' W 003°11'0 0.0
2017-Sep-17 13:29N 55°59' W 003°11'0 0.0
2017-Sep-17 12:59N 55°59' W 003°11'0 0.0
2017-Sep-17 12:29N 55°59' W 003°11'0 0.0
2017-Sep-17 11:59N 55°59' W 003°11'0 0.0
2017-Sep-17 11:29N 55°59' W 003°11'0 0.0
2017-Sep-17 10:59N 55°59' W 003°11'0 0.0
2017-Sep-17 10:29N 55°59' W 003°11'0 0.0
2017-Sep-17 09:59N 55°59' W 003°11'0 0.0
2017-Sep-17 09:29N 55°59' W 003°11'0 0.0
2017-Sep-17 08:59N 55°59' W 003°11'0 0.0
2017-Sep-17 08:29N 55°59' W 003°11'0 0.0
2017-Sep-17 07:59N 55°59' W 003°11'0 0.0
2017-Sep-17 07:29N 55°59' W 003°11'0 0.0
2017-Sep-17 06:59N 55°59' W 003°11'0 0.0
2017-Sep-17 06:29N 55°59' W 003°11'0 0.0
2017-Sep-17 05:59N 55°59' W 003°11'0 0.0
2017-Sep-17 05:29N 55°59' W 003°11'0 0.0
2017-Sep-17 04:59N 55°59' W 003°11'0 0.0
2017-Sep-17 04:29N 55°59' W 003°11'0 0.0
2017-Sep-17 03:59N 55°59' W 003°11'0 0.0
2017-Sep-17 03:29N 55°59' W 003°11'0 0.0
2017-Sep-17 02:59N 55°59' W 003°11'0 0.0
2017-Sep-17 02:29N 55°59' W 003°11'0 0.0
2017-Sep-17 01:59N 55°59' W 003°11'0 0.0
2017-Sep-17 01:29N 55°59' W 003°11'0 0.0
2017-Sep-17 00:59N 55°59' W 003°11'0 0.0
2017-Sep-17 00:29N 55°59' W 003°11'0 0.0
2017-Sep-16 23:59N 55°59' W 003°11'0 0.0
2017-Sep-16 23:29N 55°59' W 003°11'0 0.0
2017-Sep-16 22:59N 55°59' W 003°11'0 0.0
2017-Sep-16 22:29N 55°59' W 003°11'0 0.0
2017-Sep-16 21:59N 55°59' W 003°11'0 0.0
2017-Sep-16 21:29N 55°59' W 003°11'0 0.0
2017-Sep-16 20:59N 55°59' W 003°11'0 0.0
2017-Sep-16 20:29N 55°59' W 003°11'0 0.0
2017-Sep-16 19:59N 55°59' W 003°11'0 0.0
2017-Sep-16 19:29N 55°59' W 003°11'0 0.0
2017-Sep-16 18:59N 55°59' W 003°11'0 0.0
2017-Sep-16 18:29N 55°59' W 003°11'0 0.0
2017-Sep-16 17:59N 55°59' W 003°11'0 0.0
2017-Sep-16 17:29N 55°59' W 003°11'0 0.0
2017-Sep-16 16:59N 55°59' W 003°11'0 0.0
2017-Sep-16 16:29N 55°59' W 003°11'0 0.0
2017-Sep-16 15:59N 55°59' W 003°11'0 0.0
2017-Sep-16 15:29N 55°59' W 003°11'0 0.0
2017-Sep-16 14:59N 55°59' W 003°11'0 0.0
2017-Sep-16 14:29N 55°59' W 003°11'0 0.0
2017-Sep-16 13:59N 55°59' W 003°11'0 0.0
2017-Sep-16 13:29N 55°59' W 003°11'0 0.0
2017-Sep-16 12:59N 55°59' W 003°11'0 0.0
2017-Sep-16 12:29N 55°59' W 003°11'0 0.0
2017-Sep-16 11:59N 55°59' W 003°11'0 0.0
2017-Sep-16 11:29N 55°59' W 003°11'0 0.0
2017-Sep-16 10:59N 55°59' W 003°11'0 0.0
2017-Sep-16 10:29N 55°59' W 003°11'0 0.0
2017-Sep-16 09:59N 55°59' W 003°11'0 0.0
2017-Sep-16 09:29N 55°59' W 003°11'0 0.0
2017-Sep-16 08:59N 55°59' W 003°11'0 0.0
2017-Sep-16 08:29N 55°59' W 003°11'0 0.0
2017-Sep-16 07:59N 55°59' W 003°11'0 0.0
2017-Sep-16 07:29N 55°59' W 003°11'0 0.0
2017-Sep-16 06:59N 55°59' W 003°11'0 0.0
2017-Sep-16 06:29N 55°59' W 003°11'0 0.0
2017-Sep-16 05:59N 55°59' W 003°11'0 0.0
2017-Sep-16 05:29N 55°59' W 003°11'0 0.0
2017-Sep-16 04:59N 55°59' W 003°11'0 0.0
2017-Sep-16 04:29N 55°59' W 003°11'0 0.0
2017-Sep-16 03:59N 55°59' W 003°11'0 0.0
2017-Sep-16 03:29N 55°59' W 003°11'0 0.0
2017-Sep-16 02:59N 55°59' W 003°11'0 0.0
2017-Sep-16 02:29N 55°59' W 003°11'0 0.0
2017-Sep-16 01:59N 55°59' W 003°11'0 0.0
2017-Sep-16 01:29N 55°59' W 003°11'0 0.0
2017-Sep-16 00:59N 55°59' W 003°11'0 0.0
2017-Sep-16 00:29N 55°59' W 003°11'0 0.0
2017-Sep-15 23:59N 55°59' W 003°11'0 0.0
2017-Sep-15 23:29N 55°59' W 003°11'0 0.0
2017-Sep-15 22:59N 55°59' W 003°11'0 0.0
2017-Sep-15 22:29N 55°59' W 003°11'0 0.0
2017-Sep-15 21:59N 55°59' W 003°11'0 0.0
2017-Sep-15 21:29N 55°59' W 003°11'0 0.0
2017-Sep-15 20:59N 55°59' W 003°11'0 0.0
2017-Sep-15 20:29N 55°59' W 003°11'0 0.0
2017-Sep-15 19:59N 55°59' W 003°11'0 0.0
2017-Sep-15 19:29N 55°59' W 003°11'0 0.0
2017-Sep-15 18:59N 55°59' W 003°11'0 0.0
2017-Sep-15 18:29N 55°59' W 003°11'0 0.0
2017-Sep-15 17:59N 55°59' W 003°11'0 0.1
2017-Sep-15 17:31N 55°59' W 003°11'0 0.7
2017-Sep-15 17:00N 55°59' W 003°11'1 2.0
2017-Sep-15 16:30N 56°00' W 003°11'3 5.3
2017-Sep-15 16:00N 56°02' W 003°06'0 0.7
2017-Sep-15 15:30N 56°02' W 003°07'0 0.0
2017-Sep-15 15:00N 56°02' W 003°07'0 0.0
2017-Sep-15 14:30N 56°02' W 003°07'0 0.0
2017-Sep-15 14:00N 56°02' W 003°07'0 0.0
2017-Sep-15 13:30N 56°02' W 003°07'0 0.0
2017-Sep-15 13:00N 56°02' W 003°07'0 0.0
2017-Sep-15 12:30N 56°02' W 003°07'0 0.0
2017-Sep-15 12:00N 56°02' W 003°07'0 0.0
2017-Sep-15 11:30N 56°02' W 003°07'0 0.0
2017-Sep-15 11:00N 56°02' W 003°07'1 1.6
2017-Sep-15 10:30N 56°02' W 003°05'3 5.6
2017-Sep-15 10:00N 56°03' W 003°01'5 9.3
2017-Sep-15 09:30N 56°05' W 002°54'5 9.4
2017-Sep-15 09:01N 56°07' W 002°46'2 3.5
2017-Sep-15 08:30N 56°07' W 002°43'1 2.9
2017-Sep-15 08:00N 56°08' W 002°41'3 5.1
2017-Sep-15 07:30N 56°10' W 002°38'2 4.3
2017-Sep-15 07:00N 56°12' W 002°36'2 4.1
2017-Sep-15 06:30N 56°14' W 002°34'1 2.4
2017-Sep-15 06:00N 56°15' W 002°33'1 1.9
2017-Sep-15 05:30N 56°16' W 002°32'3 4.6
2017-Sep-15 04:52N 56°19' W 002°30'2 5.2
2017-Sep-15 04:30N 56°20' W 002°29'3 5.9
2017-Sep-15 04:00N 56°23' W 002°28'2 4.3
2017-Sep-15 03:30N 56°25' W 002°27'2 4.1
2017-Sep-15 03:00N 56°27' W 002°27'3 5.5
2017-Sep-15 02:30N 56°30' W 002°24'3 5.8
2017-Sep-15 02:00N 56°32' W 002°22'27 6.0
2017-Sep-14 21:34N 56°56' W 002°01'2 6.0
2017-Sep-14 21:16N 56°58' W 002°01'2 6.3
2017-Sep-14 21:00N 56°60' W 001°60'4 7.3
2017-Sep-14 20:30N 57°03' W 001°58'3 6.6
2017-Sep-14 20:00N 57°06' W 001°58'4 8.0
2017-Sep-14 19:30N 57°08' W 002°04'1 1.2
2017-Sep-14 19:01N 57°09' W 002°05'0 0.0
2017-Sep-14 18:30N 57°09' W 002°05'0 0.0
2017-Sep-14 17:58N 57°09' W 002°05'0 0.0
2017-Sep-14 17:25N 57°09' W 002°05'0 0.0
2017-Sep-14 16:58N 57°09' W 002°05'0 0.0
2017-Sep-14 16:28N 57°09' W 002°05'0 0.0
2017-Sep-14 16:01N 57°09' W 002°05'0 0.0
2017-Sep-14 15:31N 57°09' W 002°05'0 0.0
2017-Sep-14 14:58N 57°09' W 002°05'0 0.0
2017-Sep-14 14:28N 57°09' W 002°05'0 0.0
2017-Sep-14 14:01N 57°09' W 002°05'0 0.0
2017-Sep-14 13:31N 57°09' W 002°05'0 0.0
2017-Sep-14 13:01N 57°09' W 002°05'0 0.0
2017-Sep-14 12:31N 57°09' W 002°05'0 0.0
2017-Sep-14 11:58N 57°09' W 002°05'0 0.0
2017-Sep-14 11:31N 57°09' W 002°05'0 0.0
2017-Sep-14 11:01N 57°09' W 002°05'0 0.0
2017-Sep-14 10:28N 57°09' W 002°05'0 0.0
2017-Sep-14 09:58N 57°09' W 002°05'0 0.0
2017-Sep-14 09:31N 57°09' W 002°05'0 0.0
2017-Sep-14 08:58N 57°09' W 002°05'0 0.0
2017-Sep-14 08:31N 57°09' W 002°05'0 0.0
2017-Sep-14 08:01N 57°09' W 002°05'0 0.0
2017-Sep-14 07:28N 57°09' W 002°05'0 0.0
2017-Sep-14 06:58N 57°09' W 002°05'0 0.0
2017-Sep-14 06:28N 57°09' W 002°05'0 0.0
2017-Sep-14 06:01N 57°09' W 002°05'0 0.0
2017-Sep-14 05:28N 57°09' W 002°05'0 0.0
2017-Sep-14 04:58N 57°09' W 002°05'0 0.0
2017-Sep-14 04:28N 57°09' W 002°05'0 0.0
2017-Sep-14 03:58N 57°09' W 002°05'0 0.0
2017-Sep-14 03:25N 57°09' W 002°05'0 0.0
2017-Sep-14 03:01N 57°09' W 002°05'0 0.0
2017-Sep-14 02:28N 57°09' W 002°05'0 0.0
2017-Sep-14 02:01N 57°09' W 002°05'0 0.0
2017-Sep-14 01:31N 57°09' W 002°05'0 0.0
2017-Sep-14 00:57N 57°09' W 002°05'0 0.0
2017-Sep-14 00:28N 57°09' W 002°05'0 0.0
2017-Sep-14 00:01N 57°09' W 002°05'0 0.0
2017-Sep-13 23:28N 57°09' W 002°05'0 0.0
2017-Sep-13 23:01N 57°09' W 002°05'0 0.0
2017-Sep-13 22:28N 57°09' W 002°05'0 0.0
2017-Sep-13 22:01N 57°09' W 002°05'0 0.0
2017-Sep-13 21:28N 57°09' W 002°05'0 0.0
2017-Sep-13 20:58N 57°09' W 002°05'0 0.0
2017-Sep-13 20:31N 57°09' W 002°05'0 0.0
2017-Sep-13 19:58N 57°09' W 002°05'0 0.0
2017-Sep-13 19:31N 57°09' W 002°05'0 0.0
2017-Sep-13 19:01N 57°09' W 002°05'0 0.0
2017-Sep-13 18:31N 57°09' W 002°05'0 0.0
2017-Sep-13 17:58N 57°09' W 002°05'0 0.0
2017-Sep-13 17:31N 57°09' W 002°05'0 0.0
2017-Sep-13 17:01N 57°09' W 002°05'0 0.0
2017-Sep-13 16:31N 57°09' W 002°05'0 0.0
2017-Sep-13 15:58N 57°09' W 002°05'0 0.0
2017-Sep-13 15:31N 57°09' W 002°05'0 0.0
2017-Sep-13 15:01N 57°09' W 002°05'0 0.0
2017-Sep-13 14:31N 57°09' W 002°05'0 0.0
2017-Sep-13 14:01N 57°09' W 002°05'0 0.0
2017-Sep-13 13:31N 57°09' W 002°05'0 0.0
2017-Sep-13 13:01N 57°09' W 002°05'0 0.0
2017-Sep-13 12:31N 57°09' W 002°05'0 0.0
2017-Sep-13 11:58N 57°09' W 002°05'0 0.0
2017-Sep-13 11:31N 57°09' W 002°05'0 0.0
2017-Sep-13 10:58N 57°09' W 002°05'0 0.0
2017-Sep-13 10:31N 57°09' W 002°05'0 0.0
2017-Sep-13 10:01N 57°09' W 002°05'0 0.0
2017-Sep-13 09:28N 57°09' W 002°05'0 0.0
2017-Sep-13 09:01N 57°09' W 002°05'0 0.0
2017-Sep-13 08:31N 57°09' W 002°05'0 0.0
2017-Sep-13 07:58N 57°09' W 002°05'0 0.0
2017-Sep-13 07:28N 57°09' W 002°05'0 0.0
2017-Sep-13 07:01N 57°09' W 002°05'0 0.0
2017-Sep-13 06:31N 57°09' W 002°05'0 0.0
2017-Sep-13 05:58N 57°09' W 002°05'0 0.0
2017-Sep-13 05:28N 57°09' W 002°05'0 0.0
2017-Sep-13 04:58N 57°09' W 002°05'0 0.0
2017-Sep-13 04:28N 57°09' W 002°05'0 0.0
2017-Sep-13 03:58N 57°09' W 002°05'0 0.0
2017-Sep-13 03:28N 57°09' W 002°05'0 0.0
2017-Sep-13 03:01N 57°09' W 002°05'0 0.0
2017-Sep-13 02:31N 57°09' W 002°05'0 0.0
2017-Sep-13 02:01N 57°09' W 002°05'0 0.0
2017-Sep-13 01:28N 57°09' W 002°05'0 0.0
2017-Sep-13 00:58N 57°09' W 002°05'0 0.0
2017-Sep-13 00:28N 57°09' W 002°05'0 0.0
2017-Sep-13 00:01N 57°09' W 002°05'0 0.0
2017-Sep-12 23:31N 57°09' W 002°05'0 0.0
2017-Sep-12 23:01N 57°09' W 002°05'0 0.0
2017-Sep-12 22:28N 57°09' W 002°05'0 0.0
2017-Sep-12 21:58N 57°09' W 002°05'0 0.0
2017-Sep-12 21:28N 57°09' W 002°05'0 0.0
2017-Sep-12 21:01N 57°09' W 002°05'0 0.0
2017-Sep-12 20:28N 57°09' W 002°05'0 0.0
2017-Sep-12 19:58N 57°09' W 002°05'0 0.0
2017-Sep-12 19:31N 57°09' W 002°05'0 0.0
2017-Sep-12 19:01N 57°09' W 002°05'0 0.0
2017-Sep-12 18:31N 57°09' W 002°05'0 0.0
2017-Sep-12 18:01N 57°09' W 002°05'0 0.0
2017-Sep-12 17:30N 57°09' W 002°05'1 1.7
2017-Sep-12 17:00N 57°09' W 002°04'5 9.2
2017-Sep-12 16:30N 57°12' W 001°58'710.8
2017-Sep-12 15:49N 57°17' W 001°48'710.8
2017-Sep-12 15:13N 57°22' W 001°41'310.3
2017-Sep-12 14:54N 57°24' W 001°36'2 5.1
2017-Sep-12 14:30N 57°26' W 001°34'1 2.6
2017-Sep-12 13:57N 57°28' W 001°34'1 3.1
2017-Sep-12 13:30N 57°29' W 001°33'1 2.5
2017-Sep-12 12:57N 57°30' W 001°33'1 2.7
2017-Sep-12 12:30N 57°32' W 001°32'2 2.4
2017-Sep-12 11:45N 57°33' W 001°31'1 2.3
2017-Sep-12 11:21N 57°34' W 001°31'1 2.4
2017-Sep-12 11:00N 57°35' W 001°30'2 2.7
2017-Sep-12 10:05N 57°37' W 001°28'0 3.0
2017-Sep-12 10:00N 57°37' W 001°28'4 3.1
2017-Sep-12 08:40N 57°41' W 001°24'228 5.0
2017-Sep-10 11:08N 58°06' E 005°42'2 8.7
2017-Sep-10 10:56N 58°05' E 005°45'4 9.3
2017-Sep-10 10:30N 58°03' E 005°52'5 8.8
2017-Sep-10 09:59N 58°02' E 005°60'4 8.9
2017-Sep-10 09:30N 57°60' E 006°07'4 8.9
2017-Sep-10 09:00N 57°57' E 006°14'4 7.8
2017-Sep-10 08:30N 57°55' E 006°20'3 6.6
2017-Sep-10 08:00N 57°53' E 006°25'3 5.5
2017-Sep-10 07:30N 57°51' E 006°29'3 5.0
2017-Sep-10 06:59N 57°50' E 006°32'3 5.4
2017-Sep-10 06:30N 57°48' E 006°36'3 6.0
2017-Sep-10 06:00N 57°46' E 006°41'3 5.6
2017-Sep-10 05:28N 57°44' E 006°45'114 6.1
2017-Sep-09 10:48N 57°43' E 010°18'7 8.5
2017-Sep-09 09:58N 57°47' E 010°30'4 7.5
2017-Sep-09 09:29N 57°48' E 010°36'4 7.3
2017-Sep-09 09:00N 57°49' E 010°42'4 7.9
2017-Sep-09 08:30N 57°48' E 010°49'4 8.5
2017-Sep-09 08:00N 57°46' E 010°56'5 8.8
2017-Sep-09 07:29N 57°44' E 011°04'5 9.3
2017-Sep-09 07:00N 57°42' E 011°12'4 9.1
2017-Sep-09 06:30N 57°39' E 011°18'4 8.0
2017-Sep-09 06:00N 57°36' E 011°23'1 1.8
2017-Sep-09 05:30N 57°35' E 011°22'1 2.2
2017-Sep-09 05:00N 57°34' E 011°23'2 3.4
2017-Sep-09 04:30N 57°32' E 011°25'2 4.2
2017-Sep-09 04:00N 57°31' E 011°27'2 4.1
2017-Sep-09 03:30N 57°29' E 011°28'2 4.4
2017-Sep-09 03:00N 57°27' E 011°30'2 4.3
2017-Sep-09 02:30N 57°25' E 011°32'3 5.1
2017-Sep-09 02:00N 57°23' E 011°34'3 5.7
2017-Sep-09 01:29N 57°20' E 011°37'3 6.5
2017-Sep-09 00:59N 57°18' E 011°41'3 6.1
2017-Sep-09 00:30N 57°15' E 011°44'3 6.3
2017-Sep-09 00:00N 57°13' E 011°47'  

Dump ship's entire track history